createdAt,value
2022-12-22T00:03:10.772Z,0.48
2022-12-22T00:15:11.017Z,0.54
2022-12-22T00:27:11.480Z,0.54
2022-12-22T00:39:11.936Z,0.11
2022-12-22T00:51:12.372Z,0.00
2022-12-22T01:03:12.925Z,0.00
2022-12-22T01:15:13.298Z,0.00
2022-12-22T01:27:13.749Z,0.10
2022-12-22T01:39:14.168Z,0.16
2022-12-22T01:51:14.619Z,0.11
2022-12-22T02:03:15.126Z,0.15
2022-12-22T02:15:15.549Z,0.53
2022-12-22T02:27:16.005Z,0.01
2022-12-22T02:39:16.430Z,0.04
2022-12-22T02:51:16.897Z,0.00
2022-12-22T03:03:17.533Z,0.01
2022-12-22T03:15:17.795Z,0.00
2022-12-22T03:27:18.276Z,0.00
2022-12-22T03:39:18.664Z,0.00
2022-12-22T03:51:19.134Z,0.00
2022-12-22T04:03:19.679Z,1.17
2022-12-22T04:15:20.065Z,1.44
2022-12-22T04:27:20.495Z,0.09
2022-12-22T04:39:20.974Z,0.00
2022-12-22T04:51:21.371Z,0.62
2022-12-22T05:03:21.914Z,0.40
2022-12-22T05:15:22.320Z,0.01
2022-12-22T05:27:22.719Z,0.00
2022-12-22T05:39:23.232Z,0.00
2022-12-22T05:51:23.702Z,1.05
2022-12-22T06:03:24.145Z,0.34
2022-12-22T06:15:24.579Z,0.48
2022-12-22T06:27:25.031Z,0.80
2022-12-22T06:39:25.487Z,0.36
2022-12-22T06:51:25.933Z,0.24
2022-12-22T07:03:26.480Z,0.13
2022-12-22T07:15:26.821Z,0.88
2022-12-22T07:27:27.315Z,0.96
2022-12-22T07:39:27.736Z,1.23
2022-12-22T07:51:28.170Z,0.17
2022-12-22T08:03:28.772Z,0.66
2022-12-22T08:15:29.120Z,0.47
2022-12-22T08:27:29.527Z,0.49
2022-12-22T08:39:29.959Z,1.48
2022-12-22T08:51:30.404Z,1.00
2022-12-22T09:03:30.965Z,0.14
2022-12-22T09:15:31.329Z,0.17
2022-12-22T09:27:31.804Z,0.68
2022-12-22T09:39:32.249Z,0.43
2022-12-22T09:51:32.716Z,0.89
2022-12-22T10:03:33.216Z,0.46
2022-12-22T10:15:33.563Z,0.42
2022-12-22T10:27:36.198Z,0.26
2022-12-22T10:39:34.587Z,0.01
2022-12-22T10:51:34.966Z,0.43
2022-12-22T11:03:35.519Z,0.61
2022-12-22T11:15:35.878Z,0.70
2022-12-22T11:27:40.771Z,0.88
2022-12-22T11:39:36.766Z,0.61
2022-12-22T11:51:37.216Z,1.21
2022-12-22T12:03:37.844Z,1.57
2022-12-22T12:15:38.219Z,1.55
2022-12-22T12:27:38.551Z,1.09
2022-12-22T12:39:39.015Z,1.05
2022-12-22T12:51:39.506Z,0.89
2022-12-22T13:04:02.550Z,0.90
2022-12-22T13:15:40.515Z,1.11
2022-12-22T13:27:40.851Z,0.11
2022-12-22T13:39:41.278Z,1.66
2022-12-22T13:51:41.778Z,2.27
2022-12-22T14:03:59.608Z,2.47
2022-12-22T14:15:42.651Z,1.14
2022-12-22T14:27:43.105Z,0.19
2022-12-22T14:39:43.554Z,0.13
2022-12-22T14:51:43.996Z,0.54
2022-12-22T15:03:44.596Z,0.33
2022-12-22T15:15:44.882Z,0.27
2022-12-22T15:27:45.394Z,0.65
2022-12-22T15:39:45.844Z,2.64
2022-12-22T15:51:46.285Z,0.45
2022-12-22T16:03:46.904Z,1.80
2022-12-22T16:15:47.281Z,0.63
2022-12-22T16:27:47.621Z,2.18
2022-12-22T16:39:48.078Z,2.33
2022-12-22T16:51:48.531Z,1.26
2022-12-22T17:03:49.058Z,2.47
2022-12-22T17:15:49.463Z,1.34
2022-12-22T17:27:49.888Z,0.34
2022-12-22T17:39:50.398Z,0.67
2022-12-22T17:51:50.907Z,1.59
2022-12-22T18:03:51.328Z,0.27
2022-12-22T18:15:51.754Z,1.01
2022-12-22T18:27:52.131Z,0.43
2022-12-22T18:39:52.692Z,0.50
2022-12-22T18:51:53.082Z,0.80
2022-12-22T19:03:53.481Z,1.93
2022-12-22T19:15:53.992Z,3.02
2022-12-22T19:27:54.427Z,3.14
2022-12-22T19:39:54.856Z,2.52
2022-12-22T19:51:55.306Z,2.56
2022-12-22T20:03:55.773Z,2.41
2022-12-22T20:15:56.199Z,2.45
2022-12-22T20:27:56.670Z,1.94
2022-12-22T20:39:57.146Z,2.22
2022-12-22T20:51:57.611Z,3.58
2022-12-22T21:03:58.126Z,3.35
2022-12-22T21:15:58.477Z,2.88
2022-12-22T21:27:58.887Z,1.22
2022-12-22T21:39:59.380Z,1.66
2022-12-22T21:51:59.867Z,1.86
2022-12-22T22:04:00.353Z,1.31
2022-12-22T22:16:00.763Z,0.97
2022-12-22T22:28:01.149Z,0.61
2022-12-22T22:40:01.662Z,0.27
2022-12-22T22:52:02.072Z,0.08
2022-12-22T23:04:02.651Z,0.07
2022-12-22T23:16:03.108Z,0.03
2022-12-22T23:28:03.461Z,0.46
2022-12-22T23:40:25.608Z,0.01
2022-12-22T23:52:04.363Z,0.00
